sensor_id;sensor_type;location;lat;lon;timestamp;pressure;altitude;pressure_sealevel;temperature;humidity
71785;BME280;59633;52.266;5.134;2022-08-18T00:01:12;101500.25;;;19.33;95.38
71785;BME280;59633;52.266;5.134;2022-08-18T00:03:38;101494.19;;;19.37;93.67
71785;BME280;59633;52.266;5.134;2022-08-18T00:06:05;101493.63;;;19.35;94.73
71785;BME280;59633;52.266;5.134;2022-08-18T00:08:30;101496.78;;;19.32;95.08
71785;BME280;59633;52.266;5.134;2022-08-18T00:10:55;101492.50;;;19.31;94.92
71785;BME280;59633;52.266;5.134;2022-08-18T00:13:22;101488.31;;;19.35;93.84
71785;BME280;59633;52.266;5.134;2022-08-18T00:15:47;101488.78;;;19.32;94.80
71785;BME280;59633;52.266;5.134;2022-08-18T00:18:13;101498.97;;;19.35;94.51
71785;BME280;59633;52.266;5.134;2022-08-18T00:20:39;101491.75;;;19.36;94.34
71785;BME280;59633;52.266;5.134;2022-08-18T00:23:04;101474.41;;;19.33;95.46
71785;BME280;59633;52.266;5.134;2022-08-18T00:25:29;101475.53;;;19.37;94.19
71785;BME280;59633;52.266;5.134;2022-08-18T00:27:55;101469.09;;;19.33;95.07
71785;BME280;59633;52.266;5.134;2022-08-18T00:30:20;101471.75;;;19.33;94.81
71785;BME280;59633;52.266;5.134;2022-08-18T00:32:48;101477.31;;;19.32;94.89
71785;BME280;59633;52.266;5.134;2022-08-18T00:35:15;101474.09;;;19.29;94.97
71785;BME280;59633;52.266;5.134;2022-08-18T00:37:42;101472.25;;;19.30;95.11
71785;BME280;59633;52.266;5.134;2022-08-18T00:40:09;101475.22;;;19.34;93.33
71785;BME280;59633;52.266;5.134;2022-08-18T00:42:38;101480.78;;;19.32;94.78
71785;BME280;59633;52.266;5.134;2022-08-18T00:45:04;101482.09;;;19.29;94.74
71785;BME280;59633;52.266;5.134;2022-08-18T00:47:30;101481.53;;;19.27;94.63
71785;BME280;59633;52.266;5.134;2022-08-18T00:49:55;101484.69;;;19.24;94.86
71785;BME280;59633;52.266;5.134;2022-08-18T00:52:21;101475.66;;;19.25;93.79
71785;BME280;59633;52.266;5.134;2022-08-18T00:54:46;101475.34;;;19.22;94.52
71785;BME280;59633;52.266;5.134;2022-08-18T00:57:12;101472.34;;;19.18;95.07
71785;BME280;59633;52.266;5.134;2022-08-18T01:02:06;101481.66;;;19.16;94.31
71785;BME280;59633;52.266;5.134;2022-08-18T01:07:15;101489.34;;;19.12;94.09
71785;BME280;59633;52.266;5.134;2022-08-18T01:09:44;101486.97;;;18.94;96.42
71785;BME280;59633;52.266;5.134;2022-08-18T01:12:10;101494.72;;;18.95;95.90
71785;BME280;59633;52.266;5.134;2022-08-18T01:14:36;101495.97;;;18.93;95.51
71785;BME280;59633;52.266;5.134;2022-08-18T01:17:01;101499.94;;;18.90;94.86
71785;BME280;59633;52.266;5.134;2022-08-18T01:19:45;101509.47;;;18.86;94.86
71785;BME280;59633;52.266;5.134;2022-08-18T01:22:47;101503.47;;;18.79;96.71
71785;BME280;59633;52.266;5.134;2022-08-18T01:25:13;101503.97;;;18.76;96.62
71785;BME280;59633;52.266;5.134;2022-08-18T01:28:11;101499.69;;;18.75;96.09
71785;BME280;59633;52.266;5.134;2022-08-18T01:30:44;101497.69;;;18.65;97.38
71785;BME280;59633;52.266;5.134;2022-08-18T01:33:09;101497.69;;;18.65;97.13
71785;BME280;59633;52.266;5.134;2022-08-18T01:35:36;101496.88;;;18.64;97.11
71785;BME280;59633;52.266;5.134;2022-08-18T01:38:03;101501.63;;;18.62;96.45
71785;BME280;59633;52.266;5.134;2022-08-18T01:40:29;101492.28;;;18.60;97.03
71785;BME280;59633;52.266;5.134;2022-08-18T01:42:56;101497.28;;;18.56;97.11
71785;BME280;59633;52.266;5.134;2022-08-18T01:45:21;101493.88;;;18.61;94.76
71785;BME280;59633;52.266;5.134;2022-08-18T01:47:46;101493.59;;;18.57;95.50
71785;BME280;59633;52.266;5.134;2022-08-18T01:50:11;101497.75;;;18.53;96.74
71785;BME280;59633;52.266;5.134;2022-08-18T01:52:37;101487.38;;;18.51;96.87
71785;BME280;59633;52.266;5.134;2022-08-18T01:55:03;101492.13;;;18.49;96.92
71785;BME280;59633;52.266;5.134;2022-08-18T01:57:29;101491.31;;;18.49;96.80
71785;BME280;59633;52.266;5.134;2022-08-18T01:59:54;101494.22;;;18.47;97.29
71785;BME280;59633;52.266;5.134;2022-08-18T02:02:24;101499.00;;;18.45;97.57
71785;BME280;59633;52.266;5.134;2022-08-18T02:04:51;101499.97;;;18.39;98.21
71785;BME280;59633;52.266;5.134;2022-08-18T02:07:18;101504.69;;;18.37;98.13
71785;BME280;59633;52.266;5.134;2022-08-18T02:09:44;101496.31;;;18.28;98.21
71785;BME280;59633;52.266;5.134;2022-08-18T02:12:09;101500.72;;;18.23;98.13
71785;BME280;59633;52.266;5.134;2022-08-18T02:14:35;101494.59;;;18.22;98.52
71785;BME280;59633;52.266;5.134;2022-08-18T02:17:01;101501.56;;;18.23;98.87
71785;BME280;59633;52.266;5.134;2022-08-18T02:19:27;101500.16;;;18.21;98.83
71785;BME280;59633;52.266;5.134;2022-08-18T02:21:52;101504.56;;;18.15;98.78
71785;BME280;59633;52.266;5.134;2022-08-18T02:24:18;101506.03;;;18.06;99.12
71785;BME280;59633;52.266;5.134;2022-08-18T02:26:43;101517.13;;;18.03;100.00
71785;BME280;59633;52.266;5.134;2022-08-18T02:29:08;101516.78;;;17.99;100.00
71785;BME280;59633;52.266;5.134;2022-08-18T02:31:33;101515.19;;;17.98;100.00
71785;BME280;59633;52.266;5.134;2022-08-18T02:33:59;101517.06;;;17.98;100.00
71785;BME280;59633;52.266;5.134;2022-08-18T02:36:24;101515.44;;;17.97;100.00
71785;BME280;59633;52.266;5.134;2022-08-18T02:38:49;101511.47;;;17.99;100.00
71785;BME280;59633;52.266;5.134;2022-08-18T02:41:15;101508.13;;;18.04;100.00
71785;BME280;59633;52.266;5.134;2022-08-18T02:43:40;101513.44;;;18.04;100.00
71785;BME280;59633;52.266;5.134;2022-08-18T02:46:06;101510.44;;;18.00;100.00
71785;BME280;59633;52.266;5.134;2022-08-18T02:48:32;101514.72;;;18.01;100.00
71785;BME280;59633;52.266;5.134;2022-08-18T02:51:07;101522.22;;;18.04;99.74
71785;BME280;59633;52.266;5.134;2022-08-18T02:53:36;101531.81;;;18.05;100.00
71785;BME280;59633;52.266;5.134;2022-08-18T02:56:07;101523.00;;;18.05;100.00
71785;BME280;59633;52.266;5.134;2022-08-18T02:58:45;101528.91;;;18.07;100.00
71785;BME280;59633;52.266;5.134;2022-08-18T03:01:10;101530.53;;;18.08;100.00
71785;BME280;59633;52.266;5.134;2022-08-18T03:03:35;101528.66;;;18.08;100.00
71785;BME280;59633;52.266;5.134;2022-08-18T03:06:01;101538.00;;;18.11;100.00
71785;BME280;59633;52.266;5.134;2022-08-18T03:08:26;101532.00;;;18.16;100.00
71785;BME280;59633;52.266;5.134;2022-08-18T03:10:51;101539.72;;;18.17;100.00
71785;BME280;59633;52.266;5.134;2022-08-18T03:13:17;101536.03;;;18.18;99.98
71785;BME280;59633;52.266;5.134;2022-08-18T03:15:42;101535.69;;;18.15;100.00
71785;BME280;59633;52.266;5.134;2022-08-18T03:18:08;101543.66;;;18.15;100.00
71785;BME280;59633;52.266;5.134;2022-08-18T03:20:34;101544.47;;;18.15;100.00
71785;BME280;59633;52.266;5.134;2022-08-18T03:23:01;101546.34;;;18.15;100.00
71785;BME280;59633;52.266;5.134;2022-08-18T03:25:27;101547.69;;;18.17;100.00
71785;BME280;59633;52.266;5.134;2022-08-18T03:27:52;101542.38;;;18.17;100.00
71785;BME280;59633;52.266;5.134;2022-08-18T03:30:17;101538.47;;;18.20;100.00
71785;BME280;59633;52.266;5.134;2022-08-18T03:32:42;101543.06;;;18.24;100.00
71785;BME280;59633;52.266;5.134;2022-08-18T03:35:08;101536.69;;;18.25;100.00
71785;BME280;59633;52.266;5.134;2022-08-18T03:37:33;101532.50;;;18.29;100.00
71785;BME280;59633;52.266;5.134;2022-08-18T03:39:58;101537.56;;;18.31;100.00
71785;BME280;59633;52.266;5.134;2022-08-18T03:42:23;101540.56;;;18.35;100.00
71785;BME280;59633;52.266;5.134;2022-08-18T03:44:48;101544.34;;;18.39;99.38
71785;BME280;59633;52.266;5.134;2022-08-18T03:47:14;101535.81;;;18.37;99.58
71785;BME280;59633;52.266;5.134;2022-08-18T03:49:41;101534.78;;;18.38;99.63
71785;BME280;59633;52.266;5.134;2022-08-18T03:52:07;101530.50;;;18.37;99.78
71785;BME280;59633;52.266;5.134;2022-08-18T03:54:33;101534.22;;;18.36;99.97
71785;BME280;59633;52.266;5.134;2022-08-18T03:56:58;101538.69;;;18.35;100.00
71785;BME280;59633;52.266;5.134;2022-08-18T03:59:24;101538.69;;;18.35;100.00
71785;BME280;59633;52.266;5.134;2022-08-18T04:01:50;101534.22;;;18.36;100.00
71785;BME280;59633;52.266;5.134;2022-08-18T04:04:19;101547.50;;;18.36;100.00
71785;BME280;59633;52.266;5.134;2022-08-18T04:06:49;101550.19;;;18.36;100.00
71785;BME280;59633;52.266;5.134;2022-08-18T04:09:15;101541.94;;;18.37;100.00
71785;BME280;59633;52.266;5.134;2022-08-18T04:11:41;101546.22;;;18.38;100.00
71785;BME280;59633;52.266;5.134;2022-08-18T04:14:10;101541.69;;;18.39;100.00
71785;BME280;59633;52.266;5.134;2022-08-18T04:16:37;101539.28;;;18.37;100.00
71785;BME280;59633;52.266;5.134;2022-08-18T04:19:03;101541.69;;;18.39;100.00
71785;BME280;59633;52.266;5.134;2022-08-18T04:21:29;101540.91;;;18.38;100.00
71785;BME280;59633;52.266;5.134;2022-08-18T04:23:55;101539.28;;;18.37;100.00
71785;BME280;59633;52.266;5.134;2022-08-18T04:26:21;101545.66;;;18.36;100.00
71785;BME280;59633;52.266;5.134;2022-08-18T04:28:46;101541.38;;;18.35;100.00
71785;BME280;59633;52.266;5.134;2022-08-18T04:31:12;101545.31;;;18.33;100.00
71785;BME280;59633;52.266;5.134;2022-08-18T04:33:39;101531.22;;;18.32;100.00
71785;BME280;59633;52.266;5.134;2022-08-18T04:36:09;101534.44;;;18.34;100.00
71785;BME280;59633;52.266;5.134;2022-08-18T04:38:35;101535.47;;;18.33;100.00
71785;BME280;59633;52.266;5.134;2022-08-18T04:41:00;101536.03;;;18.35;99.98
71785;BME280;59633;52.266;5.134;2022-08-18T04:43:25;101529.69;;;18.36;99.86
71785;BME280;59633;52.266;5.134;2022-08-18T04:45:50;101543.00;;;18.36;99.78
71785;BME280;59633;52.266;5.134;2022-08-18T04:48:16;101531.56;;;18.36;99.66
71785;BME280;59633;52.266;5.134;2022-08-18T04:50:41;101532.59;;;18.35;99.57
71785;BME280;59633;52.266;5.134;2022-08-18T04:53:06;101547.41;;;18.30;99.53
71785;BME280;59633;52.266;5.134;2022-08-18T04:55:51;101537.00;;;18.29;99.78
71785;BME280;59633;52.266;5.134;2022-08-18T04:58:17;101546.03;;;18.28;99.70
71785;BME280;59633;52.266;5.134;2022-08-18T05:00:43;101544.41;;;18.27;99.86
71785;BME280;59633;52.266;5.134;2022-08-18T05:03:09;101541.75;;;18.27;100.00
71785;BME280;59633;52.266;5.134;2022-08-18T05:05:34;101540.38;;;18.24;100.00
71785;BME280;59633;52.266;5.134;2022-08-18T05:08:00;101540.16;;;18.26;100.00
71785;BME280;59633;52.266;5.134;2022-08-18T05:10:25;101551.38;;;18.28;100.00
71785;BME280;59633;52.266;5.134;2022-08-18T05:12:50;101540.72;;;18.28;100.00
71785;BME280;59633;52.266;5.134;2022-08-18T05:15:15;101545.81;;;18.29;100.00
71785;BME280;59633;52.266;5.134;2022-08-18T05:17:42;101546.94;;;18.34;100.00
71785;BME280;59633;52.266;5.134;2022-08-18T05:20:09;101545.97;;;18.40;100.00
71785;BME280;59633;52.266;5.134;2022-08-18T05:22:38;101552.44;;;18.44;100.00
71785;BME280;59633;52.266;5.134;2022-08-18T05:25:04;101547.19;;;18.49;100.00
71785;BME280;59633;52.266;5.134;2022-08-18T05:27:33;101549.94;;;18.54;100.00
71785;BME280;59633;52.266;5.134;2022-08-18T05:29:59;101548.88;;;18.55;100.00
71785;BME280;59633;52.266;5.134;2022-08-18T05:32:25;101547.06;;;18.56;100.00
71785;BME280;59633;52.266;5.134;2022-08-18T05:34:51;101542.28;;;18.58;100.00
71785;BME280;59633;52.266;5.134;2022-08-18T05:37:23;101547.94;;;18.61;100.00
71785;BME280;59633;52.266;5.134;2022-08-18T05:39:57;101546.88;;;18.62;100.00
71785;BME280;59633;52.266;5.134;2022-08-18T05:42:25;101548.75;;;18.62;100.00
71785;BME280;59633;52.266;5.134;2022-08-18T05:44:53;101552.53;;;18.66;100.00
71785;BME280;59633;52.266;5.134;2022-08-18T05:47:27;101556.56;;;18.68;100.00
71785;BME280;59633;52.266;5.134;2022-08-18T05:49:54;101553.72;;;18.75;100.00
71785;BME280;59633;52.266;5.134;2022-08-18T05:52:55;101552.81;;;18.81;100.00
71785;BME280;59633;52.266;5.134;2022-08-18T05:55:13;101551.09;;;18.92;100.00
71785;BME280;59633;52.266;5.134;2022-08-18T05:58:00;101555.44;;;18.98;100.00
71785;BME280;59633;52.266;5.134;2022-08-18T06:00:28;101552.38;;;19.06;100.00
71785;BME280;59633;52.266;5.134;2022-08-18T06:05:40;101545.22;;;19.29;99.76
71785;BME280;59633;52.266;5.134;2022-08-18T06:08:09;101542.94;;;19.38;98.30
71785;BME280;59633;52.266;5.134;2022-08-18T06:10:36;101536.69;;;19.49;97.80
71785;BME280;59633;52.266;5.134;2022-08-18T06:13:02;101531.50;;;19.59;97.16
71785;BME280;59633;52.266;5.134;2022-08-18T06:15:41;101540.34;;;19.65;97.13
71785;BME280;59633;52.266;5.134;2022-08-18T06:18:14;101542.28;;;19.69;95.88
71785;BME280;59633;52.266;5.134;2022-08-18T06:26:17;101544.22;;;19.74;94.83
71785;BME280;59633;52.266;5.134;2022-08-18T06:28:53;101539.44;;;19.76;94.96
71785;BME280;59633;52.266;5.134;2022-08-18T06:31:26;101545.31;;;19.78;94.08
71785;BME280;59633;52.266;5.134;2022-08-18T06:34:02;101543.78;;;19.82;93.94
71785;BME280;59633;52.266;5.134;2022-08-18T06:36:35;101535.53;;;19.84;94.43
71785;BME280;59633;52.266;5.134;2022-08-18T06:39:05;101534.72;;;19.83;94.24
71785;BME280;59633;52.266;5.134;2022-08-18T06:41:41;101542.28;;;19.92;94.60
71785;BME280;59633;52.266;5.134;2022-08-18T06:44:08;101544.44;;;19.95;93.15
71785;BME280;59633;52.266;5.134;2022-08-18T06:46:41;101546.91;;;20.01;93.09
71785;BME280;59633;52.266;5.134;2022-08-18T06:49:10;101543.97;;;20.03;92.13
71785;BME280;59633;52.266;5.134;2022-08-18T06:51:35;101550.41;;;20.07;93.32
71785;BME280;59633;52.266;5.134;2022-08-18T06:54:06;101564.59;;;20.07;92.99
71785;BME280;59633;52.266;5.134;2022-08-18T07:01:38;101565.56;;;20.28;91.89
71785;BME280;59633;52.266;5.134;2022-08-18T07:04:03;101561.06;;;20.29;89.75
71785;BME280;59633;52.266;5.134;2022-08-18T07:06:29;101552.31;;;20.39;90.24
71785;BME280;59633;52.266;5.134;2022-08-18T07:08:55;101561.66;;;20.36;88.49
71785;BME280;59633;52.266;5.134;2022-08-18T07:11:39;101565.47;;;20.45;89.77
71785;BME280;59633;52.266;5.134;2022-08-18T07:14:14;101562.25;;;20.43;86.55
71785;BME280;59633;52.266;5.134;2022-08-18T07:16:45;101569.28;;;20.55;87.56
71785;BME280;59633;52.266;5.134;2022-08-18T07:19:15;101563.13;;;20.54;87.36
71785;BME280;59633;52.266;5.134;2022-08-18T07:21:40;101574.19;;;20.63;88.11
71785;BME280;59633;52.266;5.134;2022-08-18T07:24:07;101577.59;;;20.58;84.94
71785;BME280;59633;52.266;5.134;2022-08-18T07:29:19;101576.66;;;20.69;86.74
71785;BME280;59633;52.266;5.134;2022-08-18T07:31:47;101573.47;;;20.73;85.04
71785;BME280;59633;52.266;5.134;2022-08-18T07:34:16;101581.56;;;20.83;85.01
71785;BME280;59633;52.266;5.134;2022-08-18T07:36:51;101585.66;;;20.96;85.77
71785;BME280;59633;52.266;5.134;2022-08-18T07:39:26;101586.25;;;21.03;86.16
71785;BME280;59633;52.266;5.134;2022-08-18T07:44:38;101595.13;;;21.14;84.63
71785;BME280;59633;52.266;5.134;2022-08-18T07:49:41;101605.09;;;21.23;85.52
71785;BME280;59633;52.266;5.134;2022-08-18T07:52:17;101607.00;;;21.33;86.48
71785;BME280;59633;52.266;5.134;2022-08-18T07:54:57;101602.53;;;21.44;85.21
71785;BME280;59633;52.266;5.134;2022-08-18T07:57:36;101615.69;;;21.51;84.28
71785;BME280;59633;52.266;5.134;2022-08-18T08:07:44;101612.91;;;21.35;83.79
71785;BME280;59633;52.266;5.134;2022-08-18T08:18:08;101615.03;;;21.38;82.73
71785;BME280;59633;52.266;5.134;2022-08-18T08:20:42;101610.53;;;21.39;81.35
71785;BME280;59633;52.266;5.134;2022-08-18T08:23:13;101603.94;;;21.52;82.24
71785;BME280;59633;52.266;5.134;2022-08-18T08:30:38;101614.16;;;21.65;81.06
71785;BME280;59633;52.266;5.134;2022-08-18T08:37:57;101604.59;;;21.84;80.30
71785;BME280;59633;52.266;5.134;2022-08-18T08:40:27;101602.50;;;21.97;79.78
71785;BME280;59633;52.266;5.134;2022-08-18T08:45:24;101603.66;;;22.26;80.38
71785;BME280;59633;52.266;5.134;2022-08-18T08:47:55;101606.63;;;22.35;76.82
71785;BME280;59633;52.266;5.134;2022-08-18T08:50:25;101599.13;;;22.42;76.90
71785;BME280;59633;52.266;5.134;2022-08-18T08:55:23;101599.94;;;22.68;78.15
71785;BME280;59633;52.266;5.134;2022-08-18T08:58:33;101599.94;;;22.68;77.34
71785;BME280;59633;52.266;5.134;2022-08-18T09:00:38;101602.56;;;22.22;77.63
71785;BME280;59633;52.266;5.134;2022-08-18T09:03:09;101615.47;;;22.41;77.18
71785;BME280;59633;52.266;5.134;2022-08-18T09:08:29;101607.59;;;22.08;78.13
71785;BME280;59633;52.266;5.134;2022-08-18T09:16:22;101615.28;;;21.79;79.00
71785;BME280;59633;52.266;5.134;2022-08-18T09:21:27;101618.19;;;21.67;78.59
71785;BME280;59633;52.266;5.134;2022-08-18T09:24:07;101625.31;;;21.57;79.30
71785;BME280;59633;52.266;5.134;2022-08-18T09:26:48;101620.84;;;21.67;79.24
71785;BME280;59633;52.266;5.134;2022-08-18T09:31:48;101615.84;;;21.86;79.65
71785;BME280;59633;52.266;5.134;2022-08-18T09:34:36;101616.97;;;22.01;78.59
71785;BME280;59633;52.266;5.134;2022-08-18T09:37:12;101619.66;;;22.16;77.37
71785;BME280;59633;52.266;5.134;2022-08-18T09:39:42;101619.22;;;22.35;77.07
71785;BME280;59633;52.266;5.134;2022-08-18T09:42:33;101613.88;;;22.55;76.14
71785;BME280;59633;52.266;5.134;2022-08-18T09:45:05;101612.28;;;22.70;74.04
71785;BME280;59633;52.266;5.134;2022-08-18T09:49:57;101626.75;;;22.74;71.39
71785;BME280;59633;52.266;5.134;2022-08-18T09:57:40;101610.16;;;23.08;71.75
71785;BME280;59633;52.266;5.134;2022-08-18T10:12:38;101600.50;;;22.91;71.37
71785;BME280;59633;52.266;5.134;2022-08-18T10:17:58;101586.53;;;22.94;71.68
71785;BME280;59633;52.266;5.134;2022-08-18T10:20:38;101589.22;;;23.04;69.23
71785;BME280;59633;52.266;5.134;2022-08-18T10:23:07;101590.03;;;23.10;68.01
71785;BME280;59633;52.266;5.134;2022-08-18T10:25:37;101588.69;;;23.18;69.44
71785;BME280;59633;52.266;5.134;2022-08-18T10:28:05;101585.94;;;23.38;68.37
71785;BME280;59633;52.266;5.134;2022-08-18T10:32:59;101582.16;;;23.50;69.89
71785;BME280;59633;52.266;5.134;2022-08-18T10:37:59;101599.13;;;23.14;69.51
71785;BME280;59633;52.266;5.134;2022-08-18T10:40:26;101601.56;;;22.95;69.95
71785;BME280;59633;52.266;5.134;2022-08-18T10:45:37;101609.56;;;23.26;68.98
71785;BME280;59633;52.266;5.134;2022-08-18T10:48:09;101603.13;;;23.22;68.77
71785;BME280;59633;52.266;5.134;2022-08-18T10:50:43;101597.47;;;23.39;69.49
71785;BME280;59633;52.266;5.134;2022-08-18T10:53:23;101594.75;;;23.44;69.90
71785;BME280;59633;52.266;5.134;2022-08-18T10:58:40;101606.78;;;23.62;68.99
71785;BME280;59633;52.266;5.134;2022-08-18T11:03:37;101609.56;;;23.31;69.37
71785;BME280;59633;52.266;5.134;2022-08-18T11:06:06;101604.16;;;23.36;70.71
71785;BME280;59633;52.266;5.134;2022-08-18T11:08:37;101606.84;;;23.46;69.72
71785;BME280;59633;52.266;5.134;2022-08-18T11:11:07;101597.66;;;23.63;69.92
71785;BME280;59633;52.266;5.134;2022-08-18T11:13:59;101604.06;;;23.77;68.11
71785;BME280;59633;52.266;5.134;2022-08-18T11:16:34;101602.09;;;23.93;68.68
71785;BME280;59633;52.266;5.134;2022-08-18T11:19:11;101595.34;;;24.01;67.54
71785;BME280;59633;52.266;5.134;2022-08-18T11:26:38;101596.22;;;23.86;67.06
71785;BME280;59633;52.266;5.134;2022-08-18T11:29:17;101597.47;;;24.04;67.66
71785;BME280;59633;52.266;5.134;2022-08-18T11:31:42;101595.28;;;24.11;66.45
71785;BME280;59633;52.266;5.134;2022-08-18T11:34:11;101605.00;;;24.02;66.51
71785;BME280;59633;52.266;5.134;2022-08-18T11:36:39;101592.69;;;23.96;66.81
71785;BME280;59633;52.266;5.134;2022-08-18T11:39:07;101597.00;;;23.97;67.37
71785;BME280;59633;52.266;5.134;2022-08-18T11:41:33;101596.41;;;24.05;68.13
71785;BME280;59633;52.266;5.134;2022-08-18T11:43:58;101593.28;;;23.88;69.30
71785;BME280;59633;52.266;5.134;2022-08-18T11:46:28;101591.44;;;23.78;70.43
71785;BME280;59633;52.266;5.134;2022-08-18T11:48:54;101593.81;;;23.90;70.57
71785;BME280;59633;52.266;5.134;2022-08-18T11:53:58;101579.41;;;23.60;71.16
71785;BME280;59633;52.266;5.134;2022-08-18T11:56:24;101579.91;;;23.77;70.34
71785;BME280;59633;52.266;5.134;2022-08-18T11:59:07;101593.88;;;23.64;70.58
71785;BME280;59633;52.266;5.134;2022-08-18T12:06:32;101571.00;;;23.87;70.35
71785;BME280;59633;52.266;5.134;2022-08-18T12:09:02;101569.06;;;23.98;69.70
71785;BME280;59633;52.266;5.134;2022-08-18T12:11:29;101565.25;;;24.09;69.57
71785;BME280;59633;52.266;5.134;2022-08-18T12:14:03;101577.53;;;24.15;69.76
71785;BME280;59633;52.266;5.134;2022-08-18T12:16:33;101571.53;;;23.89;68.95
71785;BME280;59633;52.266;5.134;2022-08-18T12:18:59;101571.41;;;24.10;68.49
71785;BME280;59633;52.266;5.134;2022-08-18T12:21:24;101567.06;;;24.14;67.20
71785;BME280;59633;52.266;5.134;2022-08-18T12:23:49;101559.03;;;24.14;66.86
71785;BME280;59633;52.266;5.134;2022-08-18T12:26:14;101559.78;;;24.24;66.77
71785;BME280;59633;52.266;5.134;2022-08-18T12:28:40;101543.00;;;24.38;67.40
71785;BME280;59633;52.266;5.134;2022-08-18T12:31:07;101542.44;;;24.41;66.86
71785;BME280;59633;52.266;5.134;2022-08-18T12:33:33;101543.97;;;24.52;67.36
71785;BME280;59633;52.266;5.134;2022-08-18T12:35:58;101549.66;;;24.51;67.57
71785;BME280;59633;52.266;5.134;2022-08-18T12:38:23;101558.03;;;24.39;67.66
71785;BME280;59633;52.266;5.134;2022-08-18T12:40:49;101560.66;;;24.49;66.86
71785;BME280;59633;52.266;5.134;2022-08-18T12:43:14;101567.41;;;24.47;66.03
71785;BME280;59633;52.266;5.134;2022-08-18T12:45:39;101555.53;;;24.48;66.66
71785;BME280;59633;52.266;5.134;2022-08-18T12:48:05;101555.53;;;24.48;66.32
71785;BME280;59633;52.266;5.134;2022-08-18T12:50:31;101550.19;;;24.48;65.78
71785;BME280;59633;52.266;5.134;2022-08-18T12:52:57;101548.19;;;24.63;65.24
71785;BME280;59633;52.266;5.134;2022-08-18T12:55:22;101549.75;;;24.70;65.17
71785;BME280;59633;52.266;5.134;2022-08-18T12:57:47;101544.59;;;24.73;64.95
71785;BME280;59633;52.266;5.134;2022-08-18T13:00:13;101545.38;;;24.79;64.70
71785;BME280;59633;52.266;5.134;2022-08-18T13:02:38;101547.84;;;24.70;64.33
71785;BME280;59633;52.266;5.134;2022-08-18T13:05:03;101553.31;;;24.60;63.09
71785;BME280;59633;52.266;5.134;2022-08-18T13:07:28;101553.22;;;24.70;63.62
71785;BME280;59633;52.266;5.134;2022-08-18T13:09:55;101553.22;;;24.70;61.62
71785;BME280;59633;52.266;5.134;2022-08-18T13:12:20;101559.44;;;24.65;62.40
71785;BME280;59633;52.266;5.134;2022-08-18T13:14:47;101556.94;;;24.74;63.52
71785;BME280;59633;52.266;5.134;2022-08-18T13:17:14;101561.22;;;24.80;61.41
71785;BME280;59633;52.266;5.134;2022-08-18T13:19:39;101548.06;;;24.79;62.34
71785;BME280;59633;52.266;5.134;2022-08-18T13:22:06;101554.97;;;24.85;62.29
71785;BME280;59633;52.266;5.134;2022-08-18T13:24:31;101549.53;;;24.90;61.07
71785;BME280;59633;52.266;5.134;2022-08-18T13:26:56;101545.09;;;25.04;60.82
71785;BME280;59633;52.266;5.134;2022-08-18T13:29:21;101554.84;;;25.00;59.47
71785;BME280;59633;52.266;5.134;2022-08-18T13:31:47;101556.66;;;25.05;59.69
71785;BME280;59633;52.266;5.134;2022-08-18T13:34:12;101561.91;;;25.15;59.89
71785;BME280;59633;52.266;5.134;2022-08-18T13:36:37;101564.59;;;25.15;59.15
71785;BME280;59633;52.266;5.134;2022-08-18T13:39:22;101566.72;;;25.18;60.32
71785;BME280;59633;52.266;5.134;2022-08-18T13:41:48;101573.34;;;25.02;58.74
71785;BME280;59633;52.266;5.134;2022-08-18T13:44:16;101570.38;;;25.33;59.73
71785;BME280;59633;52.266;5.134;2022-08-18T13:46:42;101580.13;;;25.23;59.62
71785;BME280;59633;52.266;5.134;2022-08-18T13:49:12;101578.53;;;25.47;59.57
71785;BME280;59633;52.266;5.134;2022-08-18T13:51:38;101576.38;;;25.49;59.57
71785;BME280;59633;52.266;5.134;2022-08-18T13:54:04;101575.25;;;25.50;59.88
71785;BME280;59633;52.266;5.134;2022-08-18T13:56:29;101580.16;;;25.67;59.64
71785;BME280;59633;52.266;5.134;2022-08-18T13:58:54;101573.31;;;25.55;61.07
71785;BME280;59633;52.266;5.134;2022-08-18T14:01:19;101584.03;;;25.36;60.55
71785;BME280;59633;52.266;5.134;2022-08-18T14:03:45;101590.84;;;25.53;60.10
71785;BME280;59633;52.266;5.134;2022-08-18T14:06:12;101580.81;;;25.58;60.10
71785;BME280;59633;52.266;5.134;2022-08-18T14:08:37;101589.81;;;25.49;59.31
71785;BME280;59633;52.266;5.134;2022-08-18T14:11:02;101584.22;;;25.64;59.53
71785;BME280;59633;52.266;5.134;2022-08-18T14:13:28;101590.56;;;25.54;59.85
71785;BME280;59633;52.266;5.134;2022-08-18T14:15:54;101586.13;;;25.63;60.10
71785;BME280;59633;52.266;5.134;2022-08-18T14:18:20;101580.03;;;25.77;60.86
71785;BME280;59633;52.266;5.134;2022-08-18T14:20:45;101571.28;;;25.66;60.33
71785;BME280;59633;52.266;5.134;2022-08-18T14:23:29;101574.69;;;25.53;59.87
71785;BME280;59633;52.266;5.134;2022-08-18T14:26:17;101570.72;;;25.69;60.28
71785;BME280;59633;52.266;5.134;2022-08-18T14:29:01;101571.44;;;25.75;60.31
71785;BME280;59633;52.266;5.134;2022-08-18T14:31:26;101570.56;;;25.79;58.98
71785;BME280;59633;52.266;5.134;2022-08-18T14:33:51;101567.22;;;25.88;60.19
71785;BME280;59633;52.266;5.134;2022-08-18T14:36:16;101569.22;;;26.01;60.38
71785;BME280;59633;52.266;5.134;2022-08-18T14:38:42;101573.09;;;25.95;59.67
71785;BME280;59633;52.266;5.134;2022-08-18T14:41:08;101571.81;;;26.06;59.15
71785;BME280;59633;52.266;5.134;2022-08-18T14:43:34;101568.78;;;25.94;57.91
71785;BME280;59633;52.266;5.134;2022-08-18T14:46:00;101567.19;;;25.93;58.38
71785;BME280;59633;52.266;5.134;2022-08-18T14:48:25;101567.59;;;25.81;58.82
71785;BME280;59633;52.266;5.134;2022-08-18T14:50:52;101556.09;;;25.75;58.95
71785;BME280;59633;52.266;5.134;2022-08-18T14:53:19;101563.94;;;25.53;58.11